Time;durP1;ratioP1;P1;durP2;ratioP2;P2;SDS_P1;SDS_P2;PMS_P1;PMS_P2;Temp;Humidity;BMP_temperature;BMP_pressure;BME280_temperature;BME280_humidity;BME280_pressure;Samples;Min_cycle;Max_cycle;Signal;HPM_P1;HPM_P2
2021/11/12 00:14:25;;;;;;;18.37;11.23;;;3.40;99.90;2.60;101333.00;;;;4922388;28;87672;-67
2021/11/12 00:16:54;;;;;;;19.37;10.77;;;2.80;99.90;2.60;101329.00;;;;4936107;28;87660;-67
2021/11/12 00:19:20;;;;;;;24.50;11.40;;;2.80;99.90;2.60;101328.00;;;;4936229;28;87854;-67
2021/11/12 00:21:46;;;;;;;16.77;10.60;;;2.80;99.90;2.60;101333.00;;;;4935473;28;88812;-67
2021/11/12 00:24:12;;;;;;;20.60;12.87;;;2.90;99.90;2.60;101333.00;;;;4934941;28;116855;-67
2021/11/12 00:26:39;;;;;;;17.50;11.20;;;2.90;99.90;2.60;101322.00;;;;4934877;28;113509;-67
2021/11/12 00:29:07;;;;;;;21.13;10.77;;;2.80;99.90;2.60;101329.00;;;;4936407;28;87722;-67
2021/11/12 00:31:45;;;;;;;17.53;10.23;;;2.80;99.90;2.60;101314.00;;;;4934984;28;88057;-67
2021/11/12 00:40:03;;;;;;;22.67;10.93;;;3.60;99.90;2.60;101313.00;;;;4911799;28;87945;-67
2021/11/12 00:42:43;;;;;;;23.57;10.40;;;2.80;99.90;2.60;101322.00;;;;4912168;28;89559;-67
2021/11/12 00:45:09;;;;;;;25.53;12.17;;;2.70;99.90;2.60;101318.00;;;;4916062;28;87731;-68
2021/11/12 00:50:23;;;;;;;18.73;12.03;;;3.30;99.90;2.60;101312.00;;;;4933818;28;87675;-66
2021/11/12 00:55:24;;;;;;;20.03;10.57;;;2.80;99.90;2.70;101318.00;;;;4933819;28;87622;-66
2021/11/12 00:57:52;;;;;;;22.10;11.80;;;2.90;99.90;2.70;101321.00;;;;4949808;28;87685;-67
2021/11/12 01:00:20;;;;;;;18.97;10.70;;;3.40;99.90;2.70;101324.00;;;;4949734;28;88672;-67
2021/11/12 01:02:46;;;;;;;22.87;11.37;;;3.00;99.90;2.70;101323.00;;;;4949483;28;90180;-67
2021/11/12 01:05:12;;;;;;;19.30;11.90;;;3.30;99.90;2.70;101318.00;;;;4931688;28;117642;-67
2021/11/12 01:07:39;;;;;;;20.43;10.90;;;2.90;99.90;2.70;101309.00;;;;4935399;28;87975;-66
2021/11/12 01:10:11;;;;;;;20.20;11.53;;;2.90;99.90;2.70;101309.00;;;;4935661;28;89961;-66
2021/11/12 01:12:40;;;;;;;15.40;8.93;;;3.00;99.90;2.70;101316.00;;;;4932681;28;104442;-66
2021/11/12 01:15:10;;;;;;;18.23;10.40;;;3.00;99.90;2.70;101316.00;;;;4935507;28;88929;-66
2021/11/12 01:17:36;;;;;;;21.00;11.60;;;3.00;99.90;2.80;101311.00;;;;4935015;28;87091;-68
2021/11/12 01:20:05;;;;;;;15.70;10.77;;;3.00;99.90;2.80;101328.00;;;;4936178;28;91808;-66
2021/11/12 01:22:32;;;;;;;13.63;10.27;;;3.00;99.90;2.80;101322.00;;;;4938026;28;89291;-67
2021/11/12 01:24:59;;;;;;;22.60;12.33;;;3.20;99.90;2.80;101302.00;;;;4937693;28;88935;-67
2021/11/12 01:27:25;;;;;;;21.13;11.43;;;3.00;99.90;2.80;101302.00;;;;4938066;28;87670;-67
2021/11/12 01:29:51;;;;;;;13.33;10.40;;;2.90;99.90;2.80;101306.00;;;;4938218;28;87679;-68
2021/11/12 01:32:20;;;;;;;16.87;10.67;;;3.00;99.90;2.70;101311.00;;;;4937834;28;90617;-68
2021/11/12 01:34:50;;;;;;;18.63;10.73;;;2.90;99.90;2.70;101305.00;;;;4951956;28;88119;-68
2021/11/12 01:37:19;;;;;;;16.57;10.00;;;2.90;99.90;2.70;101303.00;;;;4953124;28;87692;-68
2021/11/12 01:39:51;;;;;;;14.50;8.80;;;3.00;99.90;2.70;101299.00;;;;4937310;28;89732;-68
2021/11/12 01:42:18;;;;;;;14.73;10.40;;;3.00;99.90;2.70;101298.00;;;;4938575;28;87760;-68
2021/11/12 01:44:51;;;;;;;16.13;11.03;;;2.90;99.90;2.70;101285.00;;;;4936798;28;88041;-68
2021/11/12 01:49:45;;;;;;;19.87;10.50;;;2.90;99.90;2.80;101309.00;;;;4935987;28;88648;-68
2021/11/12 01:54:48;;;;;;;16.60;9.60;;;3.00;99.90;2.80;101306.00;;;;4935839;28;87621;-68
2021/11/12 01:59:49;;;;;;;23.90;10.93;;;3.00;99.90;2.90;101295.00;;;;4935224;28;87921;-68
2021/11/12 02:02:16;;;;;;;15.97;9.97;;;3.10;99.90;2.90;101299.00;;;;4952313;28;98686;-69
2021/11/12 02:04:42;;;;;;;16.67;8.73;;;3.00;99.90;2.90;101300.00;;;;4951826;28;88219;-68
2021/11/12 02:07:07;;;;;;;17.77;9.17;;;3.10;99.90;2.80;101301.00;;;;4938862;28;87510;-69
2021/11/12 02:09:33;;;;;;;15.63;9.23;;;3.60;99.90;2.80;101303.00;;;;4935196;28;108855;-68
2021/11/12 02:12:28;;;;;;;20.07;10.10;;;3.10;99.90;2.80;101306.00;;;;4951755;28;117057;-67
2021/11/12 02:14:56;;;;;;;13.90;9.13;;;3.00;99.90;2.80;101298.00;;;;4936791;28;88664;-68
2021/11/12 02:17:24;;;;;;;17.50;8.83;;;3.00;99.90;2.70;101288.00;;;;4938289;28;87634;-67
2021/11/12 02:19:57;;;;;;;17.40;8.87;;;3.00;99.90;2.70;101292.00;;;;4937845;28;87857;-68
2021/11/12 02:22:27;;;;;;;17.43;9.20;;;2.90;99.90;2.70;101287.00;;;;4952788;28;88220;-68
2021/11/12 02:25:02;;;;;;;21.83;9.47;;;2.90;99.90;2.70;101283.00;;;;4935350;28;87941;-68
2021/11/12 02:27:37;;;;;;;15.80;10.03;;;2.90;99.90;2.70;101282.00;;;;4938312;28;87716;-67
2021/11/12 02:30:05;;;;;;;18.87;9.53;;;2.90;99.90;2.60;101278.00;;;;4934432;28;92894;-67
2021/11/12 02:32:30;;;;;;;13.57;10.00;;;2.90;99.90;2.70;101280.00;;;;4935334;28;93115;-67
2021/11/12 02:35:02;;;;;;;18.50;10.97;;;2.90;99.90;2.70;101276.00;;;;4933937;28;95217;-68
2021/11/12 02:37:31;;;;;;;16.37;10.07;;;3.10;99.90;2.70;101278.00;;;;4933107;28;92959;-68
2021/11/12 02:39:57;;;;;;;19.90;10.33;;;2.90;99.90;2.70;101281.00;;;;4933642;28;93842;-68
2021/11/12 02:42:26;;;;;;;14.53;8.97;;;2.90;99.90;2.70;101285.00;;;;4934790;28;93040;-68
2021/11/12 02:44:52;;;;;;;14.13;8.37;;;2.90;99.90;2.70;101292.00;;;;4934547;28;94214;-68
2021/11/12 02:47:20;;;;;;;14.07;8.90;;;2.90;99.90;2.70;101297.00;;;;4935673;28;92852;-69
2021/11/12 02:49:46;;;;;;;27.30;10.73;;;2.90;99.90;2.80;101295.00;;;;4949232;28;93393;-69
2021/11/12 02:52:17;;;;;;;15.73;8.03;;;3.00;99.90;2.80;101295.00;;;;4934860;28;93101;-67
2021/11/12 02:54:43;;;;;;;23.33;9.53;;;3.00;99.90;2.80;101298.00;;;;4934284;28;93960;-68
2021/11/12 02:57:08;;;;;;;15.93;9.00;;;3.00;99.90;2.90;101295.00;;;;4950311;28;92264;-68
2021/11/12 02:59:34;;;;;;;15.73;10.20;;;3.10;99.90;2.90;101292.00;;;;4933991;28;109681;-67
2021/11/12 03:02:05;;;;;;;18.87;10.87;;;3.10;99.90;2.90;101298.00;;;;4934006;28;93980;-67
2021/11/12 03:04:31;;;;;;;16.13;9.00;;;3.10;99.90;2.80;101289.00;;;;4933092;28;93713;-69
2021/11/12 03:06:58;;;;;;;14.37;9.10;;;3.10;99.90;2.80;101291.00;;;;4949657;28;93300;-67
2021/11/12 03:09:27;;;;;;;12.83;8.43;;;1.70;99.90;2.90;101287.00;;;;4934901;28;92910;-67
2021/11/12 03:11:53;;;;;;;16.33;10.37;;;3.10;99.90;2.90;101283.00;;;;4934803;28;93302;-67
2021/11/12 03:14:19;;;;;;;14.77;9.60;;;3.20;99.90;2.90;101286.00;;;;4932996;28;109590;-67
2021/11/12 03:16:45;;;;;;;17.57;10.33;;;3.20;99.90;2.90;101286.00;;;;4934472;28;92736;-68
2021/11/12 03:19:12;;;;;;;13.27;9.87;;;3.20;99.90;2.90;101293.00;;;;4934332;28;92733;-69
2021/11/12 03:21:42;;;;;;;16.63;9.20;;;3.10;99.90;2.90;101279.00;;;;4934884;28;92532;-68
2021/11/12 03:24:19;;;;;;;14.60;9.70;;;3.10;99.90;2.90;101274.00;;;;4934939;28;92820;-68
2021/11/12 03:59:52;;;;;;;17.37;9.53;;;3.50;99.90;3.20;101296.00;;;;4930383;28;93938;-69
2021/11/12 04:00:13;;;;;;;17.03;9.87;;;3.50;99.90;3.20;101280.00;;;;4934238;28;92956;-69
2021/11/12 04:41:03;;;;;;;12.50;9.23;;;3.00;99.90;2.70;101264.00;;;;4931241;28;95486;-68
2021/11/12 05:44:24;;;;;;;13.77;8.10;;;2.50;99.90;2.30;101245.00;;;;4931963;28;93988;-66
2021/11/12 05:57:28;;;;;;;11.53;8.23;;;2.70;99.90;2.50;101259.00;;;;4929522;28;92712;-67
2021/11/12 05:59:55;;;;;;;16.43;8.13;;;3.00;99.90;2.50;101258.00;;;;4932053;28;92854;-67
2021/11/12 06:02:22;;;;;;;9.97;7.60;;;2.70;99.90;2.50;101253.00;;;;4931895;28;92831;-67
2021/11/12 06:04:48;;;;;;;16.10;10.37;;;2.70;99.90;2.50;101256.00;;;;4930131;28;92626;-66
2021/11/12 06:07:14;;;;;;;18.37;9.00;;;2.70;99.90;2.50;101242.00;;;;4930258;28;93107;-67
2021/11/12 06:09:40;;;;;;;14.47;8.17;;;2.70;99.90;2.60;101236.00;;;;4931901;28;93087;-66
2021/11/12 06:12:11;;;;;;;11.40;6.77;;;2.80;99.90;2.60;101242.00;;;;4931953;28;93898;-66
2021/11/12 06:14:37;;;;;;;13.73;8.23;;;2.80;99.90;2.60;101230.00;;;;4931708;28;92862;-67
2021/11/12 06:17:03;;;;;;;15.33;8.93;;;2.70;99.90;2.60;101222.00;;;;4931303;28;93619;-66
2021/11/12 06:19:29;;;;;;;13.57;8.67;;;2.90;99.90;2.60;101226.00;;;;4930743;28;95193;-66
2021/11/12 06:21:55;;;;;;;13.53;8.30;;;2.70;99.90;2.60;101233.00;;;;4931596;28;92999;-67
2021/11/12 06:24:21;;;;;;;12.20;8.43;;;2.90;99.90;2.70;101236.00;;;;4930688;28;123619;-67
2021/11/12 06:26:47;;;;;;;12.13;7.53;;;2.70;99.90;2.60;101238.00;;;;4930876;28;93001;-67
2021/11/12 06:29:13;;;;;;;13.53;8.10;;;3.70;99.90;2.60;101243.00;;;;4930309;28;111423;-67
2021/11/12 06:31:39;;;;;;;11.00;6.93;;;2.90;99.90;2.60;101247.00;;;;4932237;28;92869;-67
2021/11/12 06:34:05;;;;;;;9.87;7.83;;;2.80;99.90;2.60;101236.00;;;;4929973;28;123621;-67
2021/11/12 06:36:31;;;;;;;12.27;7.83;;;2.80;99.90;2.60;101232.00;;;;4930134;28;99521;-67
2021/11/12 06:38:57;;;;;;;19.17;8.10;;;2.80;99.90;2.60;101233.00;;;;4931454;28;93113;-67
2021/11/12 06:42:11;;;;;;;11.57;7.47;;;2.80;99.90;2.60;101241.00;;;;4931249;28;92824;-67
2021/11/12 06:49:57;;;;;;;20.20;8.10;;;2.90;99.90;2.60;101229.00;;;;4925984;28;93130;-67
2021/11/12 06:52:25;;;;;;;9.07;7.70;;;2.80;99.90;2.60;101232.00;;;;4930155;28;92745;-67
2021/11/12 06:54:52;;;;;;;10.80;7.43;;;2.80;99.90;2.60;101235.00;;;;4928776;28;94875;-67
2021/11/12 06:57:19;;;;;;;12.33;6.83;;;2.80;99.90;2.70;101227.00;;;;4930655;28;92813;-67
2021/11/12 06:59:47;;;;;;;14.00;7.57;;;2.90;99.90;2.60;101232.00;;;;4930794;28;92750;-67
2021/11/12 07:02:16;;;;;;;12.33;7.50;;;3.00;99.90;2.60;101244.00;;;;4930575;28;93787;-67
2021/11/12 07:04:41;;;;;;;12.87;7.17;;;2.90;99.90;2.60;101245.00;;;;4931108;28;93318;-67
2021/11/12 07:07:07;;;;;;;17.67;7.93;;;2.90;99.90;2.70;101248.00;;;;4928659;28;123088;-68
2021/11/12 07:09:34;;;;;;;13.30;7.07;;;2.80;99.90;2.70;101241.00;;;;4930260;28;110133;-67
2021/11/12 07:12:00;;;;;;;11.57;8.13;;;2.90;99.90;2.70;101245.00;;;;4929824;28;98133;-67
2021/11/12 07:14:26;;;;;;;11.67;8.97;;;2.90;99.90;2.70;101241.00;;;;4929742;28;97428;-67
2021/11/12 07:16:52;;;;;;;10.23;8.00;;;2.90;99.90;2.70;101247.00;;;;4927795;28;124528;-67
2021/11/12 07:19:17;;;;;;;14.33;8.13;;;2.90;99.90;2.80;101230.00;;;;4930833;28;92334;-67
2021/11/12 07:21:43;;;;;;;10.27;8.27;;;3.00;99.90;2.80;101236.00;;;;4929981;28;108724;-67
2021/11/12 07:24:09;;;;;;;14.33;7.77;;;3.00;99.90;2.90;101241.00;;;;4930395;28;94043;-67
2021/11/12 07:26:35;;;;;;;20.83;11.10;;;3.10;99.90;3.00;101247.00;;;;4929139;28;109939;-67
2021/11/12 07:29:02;;;;;;;13.80;7.33;;;3.10;99.90;3.00;101235.00;;;;4944765;28;93054;-67
2021/11/12 07:31:28;;;;;;;15.33;9.73;;;3.20;99.90;3.00;101243.00;;;;4930868;28;92993;-67
2021/11/12 07:33:58;;;;;;;14.13;8.43;;;3.20;99.90;3.00;101238.00;;;;4930379;28;93076;-68
2021/11/12 07:36:34;;;;;;;12.83;8.67;;;3.20;99.90;3.10;101225.00;;;;4929666;28;93112;-67
2021/11/12 07:39:04;;;;;;;17.87;8.60;;;3.30;99.90;3.10;101231.00;;;;4929433;28;93096;-67
2021/11/12 07:49:26;;;;;;;13.47;8.00;;;3.40;99.90;3.20;101232.00;;;;4945133;28;93115;-67
2021/11/12 07:51:52;;;;;;;14.77;8.50;;;3.40;99.90;3.30;101250.00;;;;4928619;28;109744;-67
2021/11/12 07:54:19;;;;;;;13.43;9.03;;;3.50;99.90;3.30;101237.00;;;;4930492;28;93726;-67
2021/11/12 07:56:45;;;;;;;13.73;8.73;;;4.10;99.90;3.30;101237.00;;;;4929824;28;93188;-67
2021/11/12 07:59:11;;;;;;;13.30;8.30;;;3.00;99.90;3.30;101228.00;;;;4930053;28;93056;-67
2021/11/12 08:01:37;;;;;;;17.20;8.37;;;3.40;99.90;3.30;101228.00;;;;4929839;28;108632;-67
2021/11/12 08:04:05;;;;;;;12.33;8.80;;;3.50;99.90;3.30;101229.00;;;;4929177;28;122933;-67
2021/11/12 08:06:32;;;;;;;17.97;9.53;;;3.50;99.90;3.30;101240.00;;;;4929276;28;93139;-67
2021/11/12 08:09:07;;;;;;;12.73;8.33;;;3.50;99.90;3.20;101239.00;;;;4930645;28;92489;-68
2021/11/12 08:11:36;;;;;;;11.33;8.10;;;3.50;99.90;3.30;101227.00;;;;4928113;28;93106;-67
2021/11/12 08:14:08;;;;;;;12.97;9.70;;;3.40;99.90;3.30;101225.00;;;;4929822;28;93929;-67
2021/11/12 08:16:53;;;;;;;9.73;6.93;;;3.50;99.90;3.30;101230.00;;;;4928782;28;94559;-67
2021/11/12 08:19:41;;;;;;;11.13;7.70;;;3.50;99.90;3.20;101225.00;;;;4927444;28;93315;-67
2021/11/12 08:22:11;;;;;;;16.70;9.83;;;3.40;99.90;3.20;101223.00;;;;4924710;28;93301;-67
2021/11/12 08:27:42;;;;;;;13.93;9.33;;;3.30;99.90;3.30;101212.00;;;;4921647;28;92963;-67
2021/11/12 08:30:22;;;;;;;16.00;9.10;;;3.40;99.90;3.30;101212.00;;;;4943143;28;92969;-67
2021/11/12 08:35:27;;;;;;;14.80;8.57;;;3.50;99.90;3.40;101210.00;;;;4929775;28;93074;-67
2021/11/12 08:43:09;;;;;;;14.40;8.17;;;3.60;99.90;3.40;101208.00;;;;4928259;28;94454;-68
2021/11/12 08:45:57;;;;;;;14.00;8.40;;;3.50;99.90;3.50;101207.00;;;;4929277;28;94091;-67
2021/11/12 08:48:38;;;;;;;13.53;8.53;;;3.60;99.90;3.50;101194.00;;;;4929058;28;93052;-67
2021/11/12 08:51:08;;;;;;;11.43;7.40;;;3.60;99.90;3.50;101192.00;;;;4944172;28;93035;-67
2021/11/12 08:53:34;;;;;;;13.47;7.47;;;3.60;99.90;3.50;101185.00;;;;4929143;28;92665;-67
2021/11/12 08:55:59;;;;;;;15.03;8.60;;;3.70;99.90;3.50;101184.00;;;;4928124;28;94221;-68
2021/11/12 08:58:25;;;;;;;12.50;7.90;;;3.70;99.90;3.50;101177.00;;;;4928849;28;93165;-67
2021/11/12 09:00:51;;;;;;;10.57;6.83;;;3.70;99.90;3.40;101180.00;;;;4930361;28;92141;-69
2021/11/12 09:03:18;;;;;;;9.23;6.20;;;3.50;99.90;3.40;101177.00;;;;4929516;28;93006;-69
2021/11/12 09:05:43;;;;;;;10.40;7.23;;;3.50;99.90;3.40;101171.00;;;;4921312;28;109082;-69
2021/11/12 09:08:09;;;;;;;12.63;7.83;;;3.60;99.90;3.40;101180.00;;;;4925705;28;116804;-69
2021/11/12 09:10:35;;;;;;;13.20;7.50;;;3.60;99.90;3.40;101173.00;;;;4927026;28;110363;-69
2021/11/12 09:13:10;;;;;;;10.20;7.67;;;3.60;99.90;3.50;101176.00;;;;4928110;28;93095;-68
2021/11/12 09:15:36;;;;;;;17.13;8.87;;;4.20;99.90;3.50;101170.00;;;;4929474;28;92843;-69
2021/11/12 09:18:03;;;;;;;11.93;8.10;;;3.60;99.90;3.50;101173.00;;;;4928783;28;92967;-68
2021/11/12 09:20:30;;;;;;;12.93;8.57;;;3.70;99.90;3.60;101168.00;;;;4929489;28;92980;-69
2021/11/12 09:22:58;;;;;;;15.97;8.83;;;3.70;99.90;3.60;101165.00;;;;4928170;28;109069;-67
2021/11/12 09:25:25;;;;;;;13.63;8.33;;;3.70;99.90;3.70;101170.00;;;;4927452;28;114750;-67
2021/11/12 09:27:51;;;;;;;13.73;8.60;;;3.70;99.90;3.70;101164.00;;;;4931524;28;93190;-66
2021/11/12 09:30:22;;;;;;;14.23;8.53;;;3.90;99.90;3.80;101158.00;;;;4929199;28;92808;-67
2021/11/12 09:32:49;;;;;;;11.53;8.30;;;3.90;99.90;3.90;101162.00;;;;4926792;28;94100;-67
2021/11/12 09:35:15;;;;;;;12.57;8.50;;;4.00;99.90;4.00;101165.00;;;;4929042;28;93851;-67
2021/11/12 09:37:41;;;;;;;17.73;11.63;;;4.10;99.90;4.00;101161.00;;;;4927171;28;123120;-67
2021/11/12 09:40:08;;;;;;;17.77;10.63;;;4.10;99.90;4.10;101156.00;;;;4928129;28;92803;-67
2021/11/12 09:42:37;;;;;;;17.83;10.93;;;4.20;99.90;4.10;101167.00;;;;4931537;28;93081;-67
2021/11/12 09:45:07;;;;;;;15.40;9.73;;;4.20;99.90;4.10;101165.00;;;;4931344;28;94117;-66
2021/11/12 09:47:33;;;;;;;13.47;9.77;;;4.30;99.90;4.10;101160.00;;;;4931803;28;93127;-67
2021/11/12 09:50:06;;;;;;;17.83;8.60;;;4.30;99.90;4.10;101152.00;;;;4930522;28;92641;-67
2021/11/12 09:52:33;;;;;;;17.33;9.77;;;4.50;99.90;4.20;101156.00;;;;4932096;28;92686;-67
2021/11/12 09:54:59;;;;;;;16.30;8.70;;;4.30;99.90;4.20;101144.00;;;;4930466;28;107861;-67
2021/11/12 09:57:25;;;;;;;16.73;11.13;;;4.90;99.90;4.30;101148.00;;;;4930013;28;108762;-68
2021/11/12 09:59:57;;;;;;;16.77;9.67;;;4.30;99.90;4.20;101151.00;;;;4932045;28;93152;-67
2021/11/12 10:02:27;;;;;;;13.87;9.33;;;4.80;99.90;4.20;101143.00;;;;4932102;28;93137;-67
2021/11/12 10:04:53;;;;;;;11.50;8.40;;;4.30;99.90;4.20;101125.00;;;;4931837;28;94153;-68
2021/11/12 10:07:20;;;;;;;17.73;10.87;;;4.30;99.90;4.20;101116.00;;;;4931547;28;111995;-68
2021/11/12 10:10:00;;;;;;;14.80;9.17;;;4.30;99.90;4.10;101107.00;;;;4931089;28;92989;-69
2021/11/12 10:12:41;;;;;;;15.57;9.90;;;4.30;99.90;4.10;101106.00;;;;4946126;28;93642;-68
2021/11/12 10:15:16;;;;;;;15.33;9.47;;;4.30;99.90;4.20;101096.00;;;;4930824;28;92422;-68
2021/11/12 10:17:48;;;;;;;17.60;11.60;;;4.30;99.90;4.20;101105.00;;;;4931353;28;93138;-69
2021/11/12 10:20:19;;;;;;;22.83;11.07;;;4.80;99.90;4.20;101103.00;;;;4929342;28;93012;-68
2021/11/12 10:22:47;;;;;;;17.23;10.37;;;4.40;99.90;4.20;101087.00;;;;4944816;28;94101;-70
2021/11/12 10:25:15;;;;;;;20.07;12.17;;;4.40;99.90;4.30;101077.00;;;;4931387;28;93467;-71
2021/11/12 10:27:50;;;;;;;19.70;11.20;;;6.00;99.90;4.30;101077.00;;;;4931126;28;93019;-68
2021/11/12 10:30:23;;;;;;;18.67;10.00;;;4.40;99.90;4.20;101080.00;;;;4930612;28;92841;-69
2021/11/12 10:32:56;;;;;;;18.37;9.93;;;4.30;99.90;4.20;101067.00;;;;4931249;28;92896;-68
2021/11/12 10:35:26;;;;;;;17.53;10.20;;;5.00;99.90;4.20;101062.00;;;;4928593;28;106705;-67
2021/11/12 10:37:53;;;;;;;17.43;10.37;;;4.30;99.90;4.20;101056.00;;;;4945061;28;93107;-67
2021/11/12 10:40:28;;;;;;;19.73;11.07;;;4.40;99.90;4.30;101051.00;;;;4931131;28;92451;-66
2021/11/12 10:42:58;;;;;;;17.83;10.17;;;4.40;99.90;4.30;101049.00;;;;4930720;28;93025;-68
2021/11/12 10:45:31;;;;;;;18.57;9.83;;;4.40;99.90;4.30;101041.00;;;;4930622;28;93077;-68
2021/11/12 10:48:05;;;;;;;20.17;9.50;;;4.50;99.90;4.30;101043.00;;;;4940143;28;93912;-69
2021/11/12 10:50:35;;;;;;;17.27;10.37;;;4.50;99.90;4.40;101043.00;;;;4931403;28;92756;-69
2021/11/12 10:53:07;;;;;;;24.47;11.83;;;4.50;99.90;4.50;101031.00;;;;4929231;28;95515;-68
2021/11/12 10:55:35;;;;;;;20.13;11.73;;;4.60;99.90;4.60;101035.00;;;;4927641;28;93871;-68
2021/11/12 10:58:08;;;;;;;24.37;12.33;;;4.60;99.90;4.60;101027.00;;;;4924975;28;94021;-69
2021/11/12 11:00:42;;;;;;;20.47;9.93;;;4.90;99.90;4.60;101017.00;;;;4923339;28;97621;-68
2021/11/12 11:03:11;;;;;;;20.23;12.70;;;4.80;99.90;4.70;101004.00;;;;4931035;28;93143;-69
2021/11/12 11:05:56;;;;;;;22.80;12.13;;;5.60;99.90;4.80;100993.00;;;;4945325;28;93188;-68
2021/11/12 11:08:25;;;;;;;21.00;12.87;;;5.30;99.90;4.80;100989.00;;;;4930244;28;93095;-67
2021/11/12 11:11:02;;;;;;;25.27;12.47;;;4.90;99.90;4.90;100994.00;;;;4930091;28;93258;-67
2021/11/12 11:13:44;;;;;;;21.33;13.17;;;5.00;99.90;5.00;100984.00;;;;4943620;28;93955;-68
2021/11/12 11:16:20;;;;;;;21.07;12.57;;;5.10;99.90;5.20;100978.00;;;;4944604;28;92974;-67
2021/11/12 11:18:57;;;;;;;27.23;12.37;;;5.90;99.90;5.30;100971.00;;;;4929710;28;93071;-68
2021/11/12 11:24:05;;;;;;;20.07;11.00;;;5.80;99.90;5.50;100977.00;;;;4930115;28;92919;-66
2021/11/12 11:26:48;;;;;;;19.57;12.23;;;5.60;99.90;5.60;100970.00;;;;4944048;28;93670;-68
2021/11/12 11:29:22;;;;;;;23.40;10.73;;;5.70;99.90;5.70;100968.00;;;;4929619;28;106999;-69
2021/11/12 11:31:50;;;;;;;20.53;9.97;;;5.70;99.90;5.80;100966.00;;;;4930508;28;92355;-68
2021/11/12 11:34:18;;;;;;;20.93;11.13;;;6.40;99.90;5.80;100961.00;;;;4928838;28;93056;-68
2021/11/12 11:36:44;;;;;;;21.50;12.77;;;6.40;99.90;5.80;100947.00;;;;4929580;28;93830;-68
2021/11/12 11:39:14;;;;;;;18.83;11.03;;;5.80;99.90;5.80;100952.00;;;;4944102;28;93794;-67
2021/11/12 11:41:43;;;;;;;16.33;11.77;;;5.90;99.90;5.90;100939.00;;;;4929409;28;92846;-68
2021/11/12 11:44:19;;;;;;;18.63;10.83;;;6.00;99.90;5.90;100933.00;;;;4944383;28;92860;-67
2021/11/12 11:46:48;;;;;;;18.97;10.90;;;6.00;99.90;6.00;100934.00;;;;4943048;28;93095;-68
2021/11/12 11:49:23;;;;;;;22.30;12.07;;;6.10;99.90;6.10;100932.00;;;;4929069;28;93972;-68
2021/11/12 11:51:54;;;;;;;21.70;11.87;;;6.10;99.90;6.20;100938.00;;;;4940227;28;93322;-67
2021/11/12 11:54:25;;;;;;;18.07;9.87;;;6.20;99.90;6.30;100937.00;;;;4928860;28;92881;-68
2021/11/12 11:57:00;;;;;;;24.43;10.07;;;6.90;99.90;6.40;100927.00;;;;4930344;28;92333;-68
2021/11/12 11:59:37;;;;;;;18.50;10.17;;;6.40;99.90;6.60;100935.00;;;;4929704;28;93211;-67
2021/11/12 12:02:19;;;;;;;17.30;9.57;;;7.00;99.90;7.10;100924.00;;;;4927162;28;93055;-67
2021/11/12 12:04:49;;;;;;;18.30;11.50;;;6.90;99.90;7.50;100924.00;;;;4927258;28;102162;-68
2021/11/12 12:07:27;;;;;;;15.57;9.03;;;7.30;99.90;7.90;100920.00;;;;4928981;28;94334;-68
2021/11/12 12:10:14;;;;;;;18.40;9.27;;;7.80;99.90;8.30;100907.00;;;;4930238;28;93037;-66
2021/11/12 12:12:52;;;;;;;20.13;9.37;;;8.10;99.90;8.30;100901.00;;;;4930117;28;92894;-68
2021/11/12 12:15:21;;;;;;;13.47;8.57;;;8.30;99.90;8.60;100898.00;;;;4930486;28;93131;-67
2021/11/12 12:18:05;;;;;;;17.30;10.40;;;8.70;99.90;8.80;100900.00;;;;4929755;28;93170;-66
2021/11/12 12:21:03;;;;;;;18.17;8.77;;;8.70;99.90;9.10;100883.00;;;;4924454;28;93906;-65
2021/11/12 12:35:06;;;;;;;18.27;9.10;;;9.40;99.90;9.40;100877.00;;;;4927016;28;92533;-67
2021/11/12 13:25:45;;;;;;;25.37;10.43;;;10.00;99.90;10.00;100831.00;;;;4931501;28;92813;-66
2021/11/12 13:28:28;;;;;;;20.70;9.03;;;9.90;99.90;10.00;100817.00;;;;4931605;28;93992;-66
2021/11/12 13:31:11;;;;;;;17.73;9.70;;;10.00;99.90;10.00;100814.00;;;;4932306;28;92981;-66
2021/11/12 13:33:49;;;;;;;19.97;9.33;;;10.00;99.90;10.00;100810.00;;;;4932886;28;92917;-66
2021/11/12 13:36:37;;;;;;;15.30;8.47;;;10.00;99.90;10.00;100809.00;;;;4931749;28;116371;-66
2021/11/12 13:39:11;;;;;;;20.60;9.30;;;10.00;99.90;10.10;100800.00;;;;4932989;28;92940;-66
2021/11/12 13:41:48;;;;;;;19.87;10.17;;;10.00;99.90;10.00;100803.00;;;;4932462;28;93038;-67
2021/11/12 13:44:23;;;;;;;18.80;9.00;;;10.00;99.90;10.00;100805.00;;;;4932461;28;92774;-66
2021/11/12 13:46:57;;;;;;;22.10;10.97;;;10.00;99.90;9.90;100817.00;;;;4932976;28;92495;-66
2021/11/12 13:49:42;;;;;;;14.03;9.50;;;9.90;99.90;9.80;100813.00;;;;4931638;28;93102;-65
2021/11/12 13:52:18;;;;;;;21.47;10.40;;;9.80;99.90;9.80;100810.00;;;;4932480;28;92927;-65
2021/11/12 13:54:47;;;;;;;16.13;9.67;;;9.80;99.90;9.90;100814.00;;;;4931077;28;93743;-66
2021/11/12 13:57:26;;;;;;;16.50;10.03;;;9.80;99.90;9.80;100809.00;;;;4930203;28;95693;-67
2021/11/12 14:00:01;;;;;;;21.60;10.47;;;9.80;99.90;9.70;100808.00;;;;4931736;28;93481;-66
2021/11/12 14:02:30;;;;;;;20.57;10.57;;;9.70;99.90;9.60;100803.00;;;;4931681;28;92939;-65
2021/11/12 14:05:10;;;;;;;19.77;10.07;;;9.60;99.90;9.40;100797.00;;;;4932243;28;92607;-66
2021/11/12 14:07:36;;;;;;;24.47;10.47;;;9.50;99.90;9.20;100810.00;;;;4931131;28;94550;-65
2021/11/12 14:10:15;;;;;;;25.93;12.63;;;9.30;99.90;9.00;100809.00;;;;4931842;28;93360;-65
2021/11/12 14:12:56;;;;;;;28.97;12.73;;;9.10;99.90;8.80;100808.00;;;;4931489;28;92554;-66
2021/11/12 14:15:28;;;;;;;19.47;9.87;;;9.00;99.90;8.70;100805.00;;;;4946878;28;92842;-65
2021/11/12 14:26:33;;;;;;;28.03;12.87;;;8.30;99.90;8.00;100789.00;;;;4930999;28;92938;-66
2021/11/12 14:29:14;;;;;;;25.90;16.47;;;8.20;99.90;7.90;100794.00;;;;4944851;28;94308;-65
2021/11/12 14:34:32;;;;;;;28.13;13.07;;;7.90;99.90;7.60;100794.00;;;;4928986;28;92786;-66
2021/11/12 14:37:04;;;;;;;20.67;12.03;;;7.80;99.90;7.60;100785.00;;;;4931156;28;93076;-67
2021/11/12 14:42:31;;;;;;;20.43;12.70;;;7.60;99.90;7.30;100781.00;;;;4928322;28;94751;-65
2021/11/12 14:45:18;;;;;;;21.90;13.17;;;7.50;99.90;7.20;100776.00;;;;4931039;28;92925;-66
2021/11/12 14:48:02;;;;;;;35.60;13.33;;;7.40;99.90;7.20;100780.00;;;;4945216;28;94236;-66
2021/11/12 14:53:24;;;;;;;24.30;13.10;;;7.20;99.90;7.00;100787.00;;;;4943980;28;93009;-65
2021/11/12 14:56:18;;;;;;;22.77;14.20;;;7.10;99.90;6.90;100791.00;;;;4927302;28;93112;-65
2021/11/12 14:58:48;;;;;;;23.53;12.57;;;7.10;99.90;6.80;100790.00;;;;4931305;28;92924;-65
2021/11/12 15:01:19;;;;;;;30.47;14.13;;;7.00;99.90;6.70;100792.00;;;;4930155;28;93564;-65
2021/11/12 15:03:46;;;;;;;23.40;12.03;;;6.80;99.90;6.70;100785.00;;;;4930113;28;105273;-65
2021/11/12 15:06:15;;;;;;;24.23;14.27;;;6.80;99.90;6.60;100784.00;;;;4945833;28;92115;-65
2021/11/12 15:08:51;;;;;;;25.80;14.73;;;6.80;99.90;6.50;100761.00;;;;4930437;28;92869;-65
2021/11/12 15:11:21;;;;;;;26.17;13.07;;;6.70;99.90;6.50;100760.00;;;;4929807;28;92884;-65
2021/11/12 15:13:49;;;;;;;28.67;13.90;;;6.60;99.90;6.40;100761.00;;;;4929556;28;93853;-64
2021/11/12 15:16:25;;;;;;;23.80;14.30;;;6.60;99.90;6.30;100772.00;;;;4930554;28;92895;-65
2021/11/12 15:18:56;;;;;;;28.40;16.17;;;7.00;99.90;6.20;100770.00;;;;4931053;28;93024;-65
2021/11/12 15:21:26;;;;;;;23.77;14.87;;;7.00;99.90;6.10;100771.00;;;;4929886;28;93632;-64
2021/11/12 15:23:58;;;;;;;27.47;15.03;;;6.30;99.90;6.00;100771.00;;;;4930174;28;93159;-65
2021/11/12 15:28:57;;;;;;;26.13;14.07;;;6.60;99.90;5.90;100762.00;;;;4930825;28;92747;-64
2021/11/12 15:31:33;;;;;;;36.87;16.53;;;6.70;99.90;5.80;100769.00;;;;4930294;28;92046;-65
2021/11/12 15:34:03;;;;;;;26.33;14.93;;;6.00;99.90;5.70;100766.00;;;;4927876;28;93246;-65
2021/11/12 15:36:34;;;;;;;22.37;14.33;;;5.90;99.90;5.70;100762.00;;;;4930266;28;93126;-64
2021/11/12 15:39:10;;;;;;;30.43;14.60;;;6.40;99.90;5.60;100769.00;;;;4929302;28;93833;-65
2021/11/12 15:42:03;;;;;;;20.87;13.30;;;5.80;99.90;5.50;100760.00;;;;4929695;28;93862;-65
2021/11/12 15:44:31;;;;;;;32.87;14.90;;;5.70;99.90;5.40;100758.00;;;;4926340;28;93545;-65